Gernot Onisiwo

Jefe de ojeadores - Rapid Wien
22 Feb 2028
Martes
Continuar

Personalidad

Adaptabilidad (4) Ambición (6) Controversia (11) Lealtad (14) Presión (2) Profesionalismo (18) Deportividad (18) Temperamento (2)

Perfil

Estilo de dirección Democrático
Licencia Nacional B
Determinación 11
Gestión de personas 13
Motivación 5
Disciplina 7
Satisfacción laboral
100%
Fatiga
0%
Cargo Jefe de ojeadores
Salario 76.3K p/s
Contrato 14.03.2028

Rendimiento

Comportamiento Bueno
Efectividad del entrenamiento
43%
Desarrollo de jugadores
65%
Prevención de lesiones
25%
Implementación táctica
35%

Eventos recientes

Negociación de contrato iniciada ahora
Asistió a una reunión de captación ahora
Asistió a una reunión de captación ahora
Asistió a una reunión de captación ahora
Evaluó a un jugador 7d atrás
Negociación de contrato iniciada 7d atrás
Evaluó a un jugador 7d atrás
Negociación de contrato iniciada 7d atrás

Actualmente siguiendo

187
Jugador Club Estado Habilidad Confianza Observado Última observación Último voto
Kiernan Dewsbury-Hall Everton Activo 155 / 154 40% 1 19.02.2028 -
Ryan Gauld Vancouver Whitecaps Activo 138 / 127 40% 1 19.02.2028 -
Sorba Thomas Stoke City Activo 142 / 136 40% 4 18.02.2028 -
Kevin Schade Brentford Activo 163 / 153 40% 2 18.02.2028 -
Noahkai Banks Hamburger SV Activo 142 / 143 40% 2 16.02.2028 -
Fábio Carvalho Sheffield Wednesday Activo 153 / 148 40% 1 16.02.2028 -
Oscar Al-Taawoun Activo 142 / 144 40% 1 16.02.2028 -
Joško Gvardiol Napoli Activo 165 / 169 40% 1 16.02.2028 -
Harry Wilson Leeds United Activo 158 / 146 40% 4 14.02.2028 -
Ez Abde Girona Activo 155 / 152 40% 1 14.02.2028 -
Jesús Ricardo Angulo Toluca Activo 151 / 138 40% 2 13.02.2028 -
Jhon Jhon Zenit Activo 128 / 131 40% 1 12.02.2028 -
Iván Angulo Orlando City Activo 116 / 122 40% 1 11.02.2028 -
Håkon Evjen Molde Activo 134 / 131 40% 1 11.02.2028 -
Wilson Odobert Bristol City Activo 149 / 149 40% 1 10.02.2028 -
Mikkel Damsgaard Brentford Activo 147 / 154 40% 1 10.02.2028 -
Yeremy Pino Crystal Palace Activo 159 / 158 40% 1 09.02.2028 -
Pedro de la Vega FC Dallas Activo 123 / 139 40% 1 09.02.2028 -
Petar Stanić Ludogorets Activo 131 / 141 40% 1 08.02.2028 -
Brais Méndez Columbus Crew Activo 163 / 149 40% 1 08.02.2028 -
Cameron Puertas Al-Qadisiyah Activo 125 / 129 40% 2 31.01.2028 -
Gabriel Gudmundsson Leeds United Activo 142 / 143 40% 1 31.01.2028 -
Yehor Yarmoliuk Brentford Activo 145 / 153 40% 1 29.01.2028 -
Jack Hinshelwood Brighton Activo 158 / 151 40% 1 29.01.2028 -
Teboho Mokoena Independiente Activo 124 / 126 40% 1 28.01.2028 -
Kobbie Mainoo Leicester City Activo 167 / 164 40% 2 25.01.2028 -
André Wolverhampton Activo 144 / 146 40% 1 25.01.2028 -
Rubens Dinamo Moscow Activo 136 / 131 40% 5 24.01.2028 -
James Garner Everton Activo 149 / 150 40% 1 24.01.2028 -
Ethan Ampadu Leeds United Activo 157 / 145 40% 2 22.01.2028 -
Victor Torp Coventry City Activo 140 / 132 40% 1 22.01.2028 -
Conor Bradley Bristol City Activo 160 / 159 40% 2 21.01.2028 -
Xaver Schlager Nottingham Forest Activo 153 / 159 40% 2 17.01.2028 -
Bobby Thomas Coventry City Activo 142 / 133 40% 1 17.01.2028 -
Jayden Bogle Leeds United Activo 149 / 138 40% 1 16.01.2028 -
Derry Murkin Derby County Activo 141 / 134 40% 1 16.01.2028 -
Rocco Reitz RB Leipzig Activo 149 / 148 40% 1 13.01.2028 -
Amadou Onana Aston Villa Activo 153 / 156 40% 1 13.01.2028 -
Maxence Lacroix Everton Activo 156 / 155 40% 1 12.01.2028 -
Ryan Sessegnon Fulham Activo 152 / 148 40% 1 11.01.2028 -
Nicolás Domínguez Huddersfield Town Activo 150 / 143 40% 1 11.01.2028 -
Adam Wharton Crystal Palace Activo 153 / 156 40% 1 07.01.2028 -
Neco Williams Nottingham Forest Activo 157 / 145 40% 1 06.01.2028 -
Christian Krasnodar Activo 144 / 132 40% 3 03.01.2028 -
Seedy Jatta Sturm Graz Perdido 134 / 122 55% 1 03.01.2028 Observar
Kevin Paredes River Plate Activo 125 / 136 40% 1 03.01.2028 -
Gizo Mamageishvili Sturm Graz Perdido 138 / 123 55% 1 02.01.2028 -
Callum O'Hare Sheffield United Activo 136 / 134 40% 2 01.01.2028 -
Gianluca Scamacca AS Roma Negociando 149 / 148 40% 1 01.01.2028 -
Jonathan David Juventus Activo 157 / 161 40% 1 16.08.2027 -
Andrea Pinamonti Lazio Activo 138 / 137 40% 1 16.08.2027 -
Morgan Whittaker Middlesbrough Activo 138 / 136 40% 4 09.08.2027 -
Thiago Brentford Activo 151 / 149 40% 1 08.08.2027 -
Ilyas Ansah Hull City Activo 128 / 136 40% 4 07.08.2027 -
Taty Castellanos West Ham United Activo 159 / 149 40% 2 07.08.2027 -
Zeki Amdouni Burnley Activo 138 / 139 40% 2 06.08.2027 -
Giacomo Raspadori Atalanta Activo 157 / 152 40% 1 04.08.2027 -
Aune Heggebø West Bromwich Albion Activo 140 / 127 40% 1 04.08.2027 -
Georginio Rutter Brighton Activo 143 / 154 40% 1 01.08.2027 -
Jarrod Bowen West Ham United Activo 157 / 160 40% 1 30.07.2027 -
Dávid Strelec Middlesbrough Activo 140 / 142 40% 1 29.07.2027 -
Santiago Pierotti Lecce Activo 140 / 137 40% 1 21.07.2027 -
Che Adams Torino Activo 148 / 135 40% 3 23.06.2027 -
Hwang Hee-Chan Wolverhampton Activo 138 / 136 40% 2 22.06.2027 -
Dwight McNeil Crystal Palace Activo 132 / 143 40% 1 21.06.2027 -
Oli McBurnie Hull City Activo 127 / 135 40% 1 07.06.2027 -
Nicolò Zaniolo Udinese Activo 140 / 142 40% 1 05.06.2027 -
Gonzalo Fulham Activo 149 / 147 40% 1 03.06.2027 -
Richard Koné Queens Park Rangers Activo 130 / 130 40% 1 29.05.2027 -
Othmane Maamma Watford Activo 124 / 133 40% 3 28.05.2027 -
Ross McCrorie Bristol City Activo 131 / 122 40% 1 28.05.2027 -
Ethan Galbraith Swansea City Activo 134 / 135 40% 2 27.05.2027 -
Majid Vafaei Rah Ahan Activo 89 / 115 40% 1 25.05.2027 -
Scott Twine Bristol City Activo 131 / 124 40% 2 23.05.2027 -
Max Bird Birmingham Activo 141 / 127 40% 3 22.05.2027 -
Callum Brittain Middlesbrough Activo 126 / 133 40% 2 21.05.2027 -
Kristoffer Lund Birmingham Activo 121 / 124 40% 1 21.05.2027 -
Chris Mepham West Bromwich Albion Activo 125 / 129 40% 1 19.05.2027 -
Welington Southampton Activo 137 / 128 40% 1 17.05.2027 -
Riley McGree Middlesbrough Activo 143 / 127 40% 3 16.05.2027 -
Joe Gelhardt Hull City Activo 144 / 132 40% 1 16.05.2027 -
Tommy Conway Middlesbrough Activo 140 / 130 40% 1 15.05.2027 -
Ryoya Morishita Blackburn Rovers Activo 126 / 119 40% 2 14.05.2027 -
Kwadwo Baah Watford Activo 136 / 132 40% 1 12.05.2027 -
Ilias Chair Queens Park Rangers Activo 130 / 133 40% 4 11.05.2027 -
Stanley Mills Oxford United Activo 130 / 128 40% 4 11.05.2027 -
Lewis Ferguson Bologna Activo 151 / 139 40% 1 11.05.2027 Más información
Tom Fellows Southampton Activo 130 / 137 40% 4 09.05.2027 -
Finn Azaz Southampton Activo 138 / 129 40% 2 09.05.2027 -
Igor Burnley Activo 139 / 137 40% 2 05.05.2027 -
Hamza Choudhury Leicester City Activo 133 / 123 40% 1 05.05.2027 -
Isaiah Jones Luton Town Activo 126 / 126 40% 4 04.05.2027 -
Josh Tymon Swansea City Activo 114 / 121 40% 1 03.05.2027 -
Lewis Morgan SuperSport United Activo 131 / 126 40% 3 29.04.2027 -
Kwame Poku Queens Park Rangers Activo 118 / 128 40% 1 28.04.2027 -
Jack Rudoni Coventry City Activo 135 / 138 40% 3 27.04.2027 -
Ali Ahmed Norwich City Activo 121 / 127 40% 1 24.04.2027 -
Kasey McAteer Ipswich Town Activo 130 / 129 40% 1 21.04.2027 -
Derensili Sanches Fernandes Huddersfield Town Activo 136 / 124 40% 2 20.04.2027 -
Bertrand Traoré Sunderland Activo 123 / 132 40% 2 20.04.2027 -
Tommaso Orsini Sambenedettese Activo 86 / 106 40% 2 17.04.2027 -
Andreas Wober Mattersburg Activo 97 / 104 40% 1 17.04.2027 -
David Brooks Bournemouth Activo 136 / 135 40% 2 14.04.2027 -
Alexandr Degtev Orenburg Activo 103 / 110 40% 1 11.04.2027 -
Lautaro Herrera Estudiantes Activo 88 / 101 40% 1 09.04.2027 -
Amil Siljevic Eintracht Frankfurt Activo 96 / 102 40% 1 09.04.2027 -
Rodrigo Parra Guadalajara Activo 88 / 110 40% 3 08.04.2027 -
Oswin Appollis Orlando Pirates Activo 120 / 112 40% 2 31.03.2027 -
Marcelo Allende Mamelodi Sundowns Activo 118 / 137 40% 2 27.03.2027 -
David Turnbull Cardiff City Activo 119 / 116 40% 1 27.03.2027 -
Ronald Swansea City Activo 116 / 127 40% 1 23.03.2027 -
Mandla Erasmus SuperSport United Activo 139 / 121 40% 2 20.03.2027 -
Leon Klanac Bayern Munich Activo 84 / 99 40% 1 20.03.2027 -
Leonardo Sosa Rosario Central Activo 97 / 101 40% 1 18.03.2027 -
Richard Medvedev Khazar Activo 77 / 105 40% 1 18.03.2027 -
Cyriaque Irié VfL Wolfsburg Activo 129 / 131 40% 1 16.03.2027 -
Marquinhos Spartak Moscow Activo 131 / 126 40% 3 13.03.2027 -
Tyler Goodrham Oxford United Activo 117 / 129 40% 1 10.03.2027 -
Georges-Kévin Nkoudou Al-Diriyah Activo 141 / 129 40% 1 05.03.2027 -
Luca Martelli Forli Activo 77 / 99 40% 1 05.03.2027 -
Nordi Mukiele Sunderland Activo 142 / 141 40% 2 02.03.2027 -
Hélio Varela Maccabi Tel Aviv Activo 106 / 132 40% 1 22.02.2027 -
Yusuke Matsuo Esteghlal Activo 136 / 124 40% 1 20.02.2027 -
Florentino Luís Ipswich Town Activo 134 / 139 40% 1 14.02.2027 -
Oston O'runov Persepolis Activo 114 / 119 40% 1 02.02.2027 -
Óscar Al-Diriyah Activo 144 / 128 40% 1 02.02.2027 -
Boris Matić Wolfsberger AC Activo 107 / 126 51% 1 25.01.2027 -
Tedi Cara LNZ Activo 120 / 115 40% 1 02.01.2027 -
Jon Gorenc Stankovič Sturm Graz Activo 120 / 134 40% 2 25.12.2026 -
Mohamed Camara Maccabi Tel Aviv Activo 138 / 135 40% 1 23.12.2026 -
Josh Brownhill Al-Shabab Activo 125 / 134 40% 2 22.12.2026 -
Moisés CSKA Moscow Activo 117 / 125 40% 2 18.12.2026 -
Mohamed Simakan Al-Nassr Activo 134 / 133 40% 1 18.12.2026 -
Bradley Tau SuperSport United Activo 111 / 132 40% 2 16.12.2026 -
Lucas Souto Defensa y Justicia Activo 125 / 125 40% 1 16.12.2026 -
Maicon Levski Activo 126 / 118 40% 1 15.12.2026 -
Tormena Krasnodar Activo 130 / 129 40% 7 14.12.2026 -
Adrián Marín Persepolis Activo 132 / 125 40% 5 13.12.2026 -
Ádám Nagy Ferencvaros Activo 117 / 118 40% 2 12.12.2026 -
Nazareno Colombo Racing Club Activo 130 / 135 40% 1 11.12.2026 -
Jaime Seoane Al-Faisaly Activo 125 / 140 40% 1 11.12.2026 -
Danil Glebov Dinamo Moscow Activo 117 / 133 40% 2 08.12.2026 -
Dan-Axel Zagadou VfB Stuttgart Activo 123 / 130 40% 2 06.12.2026 -
Yacine Adli Al-Shabab Activo 141 / 136 40% 2 04.12.2026 -
Sergej Milinković-Savić Al-Hilal Activo 160 / 146 40% 1 03.12.2026 -
Yves Bissouma Tottenham Activo 139 / 146 40% 1 03.12.2026 -
Fernando Costanza Krylya Sovetov Activo 113 / 120 40% 1 26.11.2026 -
Pedro Henrique Shakhtar Activo 137 / 134 40% 1 26.11.2026 -
João Victor CSKA Moscow Activo 139 / 127 40% 2 24.11.2026 -
Nikolas Nartey VfB Stuttgart Activo 125 / 139 40% 1 22.11.2026 -
Rogério VfL Wolfsburg Activo 140 / 123 40% 1 21.11.2026 -
Jack Currie Oxford United Activo 109 / 126 40% 1 19.11.2026 -
Khuliso Mudau Mamelodi Sundowns Activo 109 / 132 40% 1 19.11.2026 -
Samú Al-Nassr Activo 130 / 138 40% 1 16.11.2026 -
Fredrik Bjørkan Bodo/Glimt Activo 131 / 133 40% 1 16.11.2026 -
Olivier Deman Werder Bremen Activo 119 / 129 40% 2 15.11.2026 -
Youssef Belammari Al Ahly Activo 120 / 128 40% 1 14.11.2026 -
Max Finkgräfe RB Leipzig Activo 125 / 126 40% 1 14.11.2026 -
Marko Grujić Levski Activo 131 / 121 40% 1 09.11.2026 -
Ivan Oblyakov CSKA Moscow Activo 120 / 123 40% 2 06.11.2026 -
Mads Pedersen FC Augsburg Activo 112 / 118 40% 1 20.10.2026 -
Jordan Lotomba Bloemfontein Celtic Activo 112 / 116 40% 1 19.10.2026 -
Patrick Berg Bodo/Glimt Activo 150 / 136 40% 1 15.10.2026 -
Rúben Neves Al-Hilal Activo 168 / 151 40% 1 12.10.2026 -
Christopher Martins Pereira Spartak Moscow Activo 122 / 132 40% 1 11.10.2026 -
Nobel Mendy Hull City Activo 127 / 131 40% 1 09.10.2026 -
Gift Ngcobo Ajax Cape Town Activo 111 / 137 40% 1 06.10.2026 -
Luke McGee Tranmere Rovers Activo 108 / 93 40% 1 03.10.2026 -
Daniel Klein FC Augsburg Activo 105 / 97 40% 1 30.09.2026 -
Yassine Bounou Al-Hilal Activo 160 / 151 40% 1 30.09.2026 -
Dejan Stojanović Altach Activo 122 / 116 40% 2 28.09.2026 Más información
Nils de Mol Lokomotivi Activo 86 / 99 40% 1 22.09.2026 -
Alejandro Araque Deportivo Tachira Activo 127 / 107 40% 1 22.09.2026 -
Lukas Gütlbauer Wolfsberger AC Activo 117 / 113 40% 1 21.09.2026 -
Andreas Leitner SV Ried Activo 106 / 119 40% 1 21.09.2026 -
Alireza Beiranvand Tractor Activo 128 / 125 40% 2 20.09.2026 -
Dominik Takáč Slovan Bratislava Activo 137 / 130 40% 1 20.09.2026 -
Brandon Petersen Kaizer Chiefs Activo 117 / 108 40% 1 18.09.2026 -
Filip Marschall Stevenage Activo 107 / 105 40% 1 18.09.2026 -
Daniil Khudyakov Sturm Graz Activo 123 / 118 40% 1 15.09.2026 Más información
Zack Steffen Spartak Moscow Activo 135 / 134 40% 1 13.09.2026 -
Aubrey Modiba Mamelodi Sundowns Activo 108 / 132 40% 1 11.09.2026 -
Maxim Leitsch Mainz 05 Activo 135 / 121 40% 1 08.09.2026 -
Elliot Panicco Odd Activo 84 / 94 40% 1 06.09.2026 -
Stanislav Agkatsev Sunderland Negociando 132 / 133 66% 1 24.08.2026 Aprobar
Federico Viñas Toluca Activo 142 / 132 40% 1 01.08.2026 -
Gabriel Jesus Barcelona Activo 140 / 152 40% 1 01.08.2026 -